Hauptseite
METAR-TAF:

METAR-TAF

Flughäfen :

Flughafen Kassel-Calden

Kassel, Deutschland

Breite: 51-24N, Länge: 009-23E, Höhe: 277 m

Beobachtung

Neuester Wetterbericht von vor 17 Minuten, um 11:20 UTC
Wind 12 kt aus Süd/Südwest
Temperatur 26°C
Luftfeuchtigkeit 42%
Luftdruck 1018 hPa
Sichtweite 10 km oder mehr
keine Wolken unter 1500 m und keine Kumulonimbus oder Gewitterwolken

METAR: EDVK 191120Z 20012KT CAVOK 26/12 Q1018

Zeit: 13:37 (11:37 UTC)

Prognose

Neuester Wetterbericht von vor 3 Stunden und 37 Minuten, um 08:00 UTC
Gültige Prognose vom 19 um 09 UTC bis 19 um 18 UTC
Wind 8 kt aus Süd/Südwest
Sichtweite 10 km oder mehr
keine Wolken unter 1500 m und keine Kumulonimbus oder Gewitterwolken

TAF: EDVK 190800Z 1909/1918 20008KT CAVOK

Wetterbeobachtungen und Prognosen von mehr als 4000 Flughäfen (METAR und TAF Bericht).

Die verfügbaren Stationen werden durch gelbe und rote Markierungen auf der Karte dargestellt.

Führen Sie die Maus auf sie, um den Namen der Station zu sehen.

Darauf klicken, um die Beobachtung von Wetterbeobachtungen und Prognosen zu sehen.

Um die Karte zu ändern : klicken Sie auf den grünen Tasten mit einem schwarzen Kreuz Zum Vergrößern, auf den grünen Button mit einem Gedankenstrich zu verkleinern, oder auf die grünen Pfeile für benachbarte Karten.


METAR-TAF: